Time;durP1;ratioP1;P1;durP2;ratioP2;P2;SDS_P1;SDS_P2;PMS_P1;PMS_P2;Temp;Humidity;BMP_temperature;BMP_pressure;BME280_temperature;BME280_humidity;BME280_pressure;Samples;Min_cycle;Max_cycle;Signal;HPM_P1;HPM_P2
2024/02/25 00:02:46;;;;;;;8.82;5.00;;;;;;;9.44;83.52;99834.13;5073048;28;20148;-83
2024/02/25 00:05:52;;;;;;;11.88;4.47;;;;;;;9.39;83.35;99831.03;5072968;28;20481;-80
2024/02/25 00:08:57;;;;;;;11.02;5.03;;;;;;;9.81;81.46;99835.13;5072979;28;20055;-79
2024/02/25 00:12:01;;;;;;;7.30;3.50;;;;;;;9.90;81.41;99836.06;5072985;28;20052;-81
2024/02/25 00:15:05;;;;;;;5.38;2.75;;;;;;;9.65;82.09;99826.78;5072587;28;20498;-82
2024/02/25 00:18:10;;;;;;;6.10;2.45;;;;;;;9.67;81.91;99838.25;5072882;28;20059;-82
2024/02/25 00:21:14;;;;;;;4.72;2.10;;;;;;;9.72;81.02;99841.34;5072729;28;20463;-83
2024/02/25 00:24:19;;;;;;;6.35;2.35;;;;;;;9.83;80.80;99841.19;5072866;28;20055;-84
2024/02/25 00:27:24;;;;;;;5.38;1.60;;;;;;;9.43;81.27;99832.44;5060410;28;20055;-82
2024/02/25 00:30:29;;;;;;;3.85;2.00;;;;;;;10.03;79.44;99844.69;5072482;28;20056;-78
2024/02/25 00:33:33;;;;;;;4.97;2.22;;;;;;;10.18;78.31;99845.09;5059794;28;20060;-79
2024/02/25 00:36:38;;;;;;;3.35;1.80;;;;;;;10.01;79.49;99837.75;5072557;28;20051;-80
2024/02/25 00:39:43;;;;;;;4.03;1.80;;;;;;;10.03;79.72;99841.16;5072600;28;20100;-79
2024/02/25 00:42:47;;;;;;;3.13;1.70;;;;;;;9.75;80.77;99840.22;5060437;28;20051;-80
2024/02/25 00:45:52;;;;;;;4.53;1.60;;;;;;;10.26;79.91;99835.34;5072496;28;20051;-83
2024/02/25 00:48:57;;;;;;;4.43;1.60;;;;;;;10.35;79.69;99836.31;5072133;28;20399;-83
2024/02/25 00:52:01;;;;;;;5.03;1.70;;;;;;;10.21;79.49;99834.94;5063280;28;20047;-83
2024/02/25 00:55:06;;;;;;;4.95;1.45;;;;;;;9.93;80.44;99832.25;5063846;28;20051;-83
2024/02/25 00:58:11;;;;;;;3.78;1.60;;;;;;;10.10;80.15;99832.38;5076217;28;20052;-84
2024/02/25 01:01:16;;;;;;;5.85;1.60;;;;;;;10.07;79.64;99837.22;5074955;28;20048;-83
2024/02/25 01:04:21;;;;;;;4.00;1.85;;;;;;;9.86;80.05;99842.72;5076243;28;20055;-84
2024/02/25 01:07:25;;;;;;;3.47;1.52;;;;;;;10.13;79.34;99839.31;5075872;28;20486;-85
2024/02/25 01:10:30;;;;;;;3.75;1.52;;;;;;;10.07;79.64;99839.88;5075776;28;20044;-84
2024/02/25 01:13:35;;;;;;;5.30;1.95;;;;;;;10.32;79.12;99844.66;5075700;28;20395;-84
2024/02/25 01:16:39;;;;;;;5.57;1.90;;;;;;;10.34;78.99;99832.75;5063340;28;20055;-85
2024/02/25 01:19:44;;;;;;;5.10;1.80;;;;;;;10.54;78.52;99820.16;5075596;28;20048;-79
2024/02/25 01:22:48;;;;;;;6.65;1.67;;;;;;;10.36;79.18;99822.75;5074798;28;20044;-80
2024/02/25 01:25:52;;;;;;;3.15;1.40;;;;;;;10.18;78.86;99829.88;5075611;28;20056;-82
2024/02/25 01:28:58;;;;;;;3.28;1.80;;;;;;;10.16;78.91;99825.63;5075527;28;20395;-80
2024/02/25 01:32:03;;;;;;;2.95;1.50;;;;;;;10.51;77.95;99830.31;5075521;28;20060;-80
2024/02/25 01:35:11;;;;;;;8.50;3.15;;;;;;;10.31;78.66;99834.91;5062736;28;20503;-79
2024/02/25 01:38:16;;;;;;;4.90;2.22;;;;;;;10.37;79.21;99828.94;5063004;28;20487;-85
2024/02/25 01:41:20;;;;;;;5.18;1.60;;;;;;;10.50;78.43;99828.63;5075336;28;20055;-80
2024/02/25 01:44:25;;;;;;;4.63;1.85;;;;;;;10.21;79.74;99829.59;5075311;28;20120;-83
2024/02/25 01:47:30;;;;;;;4.13;1.70;;;;;;;10.26;79.37;99827.31;5075180;28;20063;-80
2024/02/25 01:50:36;;;;;;;3.65;1.50;;;;;;;10.14;79.79;99830.31;5082715;28;20066;-82
2024/02/25 01:53:40;;;;;;;3.30;1.50;;;;;;;9.94;79.81;99815.19;5095160;28;20055;-83
2024/02/25 01:56:45;;;;;;;3.17;1.30;;;;;;;10.07;79.41;99821.97;5095222;28;20051;-80
2024/02/25 01:59:51;;;;;;;4.63;1.63;;;;;;;9.80;80.15;99809.28;5095155;28;20051;-82
2024/02/25 02:02:58;;;;;;;5.18;1.70;;;;;;;10.00;79.44;99820.81;5094059;28;20067;-85
2024/02/25 02:06:03;;;;;;;3.22;1.35;;;;;;;10.07;78.78;99821.13;5082748;28;20059;-85
2024/02/25 02:09:13;;;;;;;2.50;1.27;;;;;;;10.27;77.87;99823.63;5082402;28;20053;-81
2024/02/25 02:12:17;;;;;;;4.85;1.63;;;;;;;10.30;78.24;99831.38;5095001;28;20395;-80
2024/02/25 02:15:22;;;;;;;3.65;1.30;;;;;;;10.46;77.51;99817.34;5094812;28;20059;-82
2024/02/25 02:18:27;;;;;;;2.38;1.25;;;;;;;10.71;77.04;99822.06;5094800;28;20043;-85
2024/02/25 02:21:31;;;;;;;4.43;1.98;;;;;;;10.51;77.28;99817.75;5093623;28;20058;-81
2024/02/25 02:24:35;;;;;;;4.13;1.10;;;;;;;10.51;77.94;99824.97;5082409;28;20043;-85
2024/02/25 02:27:41;;;;;;;3.45;1.42;;;;;;;10.33;78.39;99819.50;5081984;28;20055;-79
2024/02/25 02:30:45;;;;;;;6.93;1.40;;;;;;;10.21;78.66;99818.00;5094659;28;20047;-82
2024/02/25 02:33:52;;;;;;;4.47;1.42;;;;;;;9.73;80.44;99821.56;5094913;28;20063;-81
2024/02/25 02:36:57;;;;;;;2.95;1.20;;;;;;;9.68;81.05;99818.47;5094473;28;20067;-85
2024/02/25 02:40:04;;;;;;;7.55;1.45;;;;;;;9.79;81.22;99821.03;5082187;28;20055;-84
2024/02/25 02:43:08;;;;;;;4.72;1.45;;;;;;;9.85;80.65;99821.44;5082571;28;20047;-84
2024/02/25 02:46:21;;;;;;;2.60;1.20;;;;;;;10.11;79.77;99823.34;5094884;28;20076;-82
2024/02/25 02:49:26;;;;;;;5.20;1.85;;;;;;;10.11;80.37;99833.22;5094208;28;20391;-80
2024/02/25 02:52:31;;;;;;;5.28;1.48;;;;;;;9.95;81.44;99827.63;5094336;28;20055;-84
2024/02/25 02:55:36;;;;;;;4.25;1.50;;;;;;;10.19;80.54;99828.03;5094408;28;20374;-83
2024/02/25 02:58:41;;;;;;;2.90;1.30;;;;;;;10.17;80.52;99833.53;5081218;28;20051;-85
2024/02/25 03:01:48;;;;;;;3.97;1.55;;;;;;;9.92;81.73;99827.91;5094214;28;20046;-84
2024/02/25 03:04:53;;;;;;;3.33;1.60;;;;;;;10.13;80.99;99840.19;5093930;28;20051;-85
2024/02/25 03:07:58;;;;;;;3.83;1.27;;;;;;;10.57;79.68;99832.41;5094136;28;20390;-81
2024/02/25 03:11:03;;;;;;;5.22;1.60;;;;;;;10.54;78.68;99828.22;5093989;28;20047;-86
2024/02/25 03:14:07;;;;;;;3.20;1.63;;;;;;;10.52;78.79;99824.81;5093594;28;20478;-81
2024/02/25 03:17:11;;;;;;;5.35;1.65;;;;;;;10.28;79.91;99825.31;5093982;28;20055;-83
2024/02/25 03:20:19;;;;;;;2.78;1.20;;;;;;;10.19;80.03;99820.00;5093819;28;20414;-84
2024/02/25 03:23:24;;;;;;;2.65;1.48;;;;;;;9.86;82.11;99823.97;5093839;28;20051;-84
2024/02/25 03:26:28;;;;;;;5.28;1.65;;;;;;;9.79;83.34;99822.84;5093709;28;20055;-81
2024/02/25 03:29:32;;;;;;;5.60;1.65;;;;;;;9.96;83.03;99824.78;5093606;28;20051;-80
2024/02/25 03:32:38;;;;;;;3.35;1.33;;;;;;;10.11;82.20;99827.88;5093698;28;20051;-83
2024/02/25 03:35:43;;;;;;;2.83;1.33;;;;;;;10.24;81.91;99823.09;5081192;28;20050;-79
2024/02/25 03:38:47;;;;;;;5.05;1.35;;;;;;;10.37;81.67;99835.16;5093624;28;20043;-79
2024/02/25 03:41:52;;;;;;;2.83;1.20;;;;;;;10.39;81.57;99827.81;5093530;28;20047;-79
2024/02/25 03:44:56;;;;;;;2.53;1.50;;;;;;;10.44;81.47;99825.53;5093464;28;20485;-83
2024/02/25 03:48:01;;;;;;;3.85;1.55;;;;;;;10.46;81.95;99822.72;5090004;28;20413;-82
2024/02/25 03:51:05;;;;;;;5.68;1.48;;;;;;;10.48;82.33;99826.09;5073269;28;20490;-81
2024/02/25 03:54:10;;;;;;;6.03;1.42;;;;;;;10.39;82.84;99827.81;5073195;28;20056;-80
2024/02/25 03:57:14;;;;;;;5.30;1.65;;;;;;;9.81;84.49;99827.06;5073323;28;20067;-81
2024/02/25 04:00:18;;;;;;;3.72;1.73;;;;;;;9.93;83.93;99816.19;5073232;28;20371;-81
2024/02/25 04:03:22;;;;;;;2.83;1.20;;;;;;;9.89;83.58;99814.78;5060676;28;20055;-80
2024/02/25 04:06:27;;;;;;;4.53;1.67;;;;;;;9.62;84.65;99812.84;5073130;28;20063;-81
2024/02/25 04:09:32;;;;;;;4.00;1.67;;;;;;;9.52;85.03;99809.31;5073008;28;20056;-79
2024/02/25 04:12:36;;;;;;;5.65;1.50;;;;;;;9.43;85.28;99811.00;5073021;28;20047;-81
2024/02/25 04:15:41;;;;;;;4.28;1.50;;;;;;;9.54;85.58;99807.34;5072909;28;20048;-83
2024/02/25 04:18:45;;;;;;;6.28;1.95;;;;;;;9.50;85.94;99814.84;5072780;28;20063;-83
2024/02/25 04:21:50;;;;;;;4.20;1.80;;;;;;;9.26;86.72;99814.38;5072836;28;20051;-80
2024/02/25 04:24:54;;;;;;;5.28;1.77;;;;;;;9.59;85.54;99811.28;5073448;28;20047;-80
2024/02/25 04:27:58;;;;;;;3.33;1.67;;;;;;;9.60;85.23;99812.16;5065134;28;20048;-84
2024/02/25 04:31:03;;;;;;;2.70;1.60;;;;;;;9.72;84.59;99825.25;5077344;28;20060;-81
2024/02/25 04:34:08;;;;;;;2.97;1.30;;;;;;;9.77;84.26;99817.63;5076867;28;20060;-80
2024/02/25 04:37:13;;;;;;;3.22;1.33;;;;;;;10.11;83.41;99827.88;5076961;28;20051;-82
2024/02/25 04:40:18;;;;;;;4.63;1.45;;;;;;;10.04;83.30;99818.72;5077153;28;20051;-82
2024/02/25 04:43:22;;;;;;;4.50;1.83;;;;;;;10.01;83.10;99825.22;5076804;28;20055;-83
2024/02/25 04:46:26;;;;;;;5.90;2.30;;;;;;;9.92;83.56;99822.56;5076725;28;20071;-83
2024/02/25 04:49:30;;;;;;;3.85;2.22;;;;;;;10.07;83.05;99823.78;5075974;28;20388;-84
2024/02/25 04:52:35;;;;;;;5.68;1.38;;;;;;;9.92;83.50;99817.19;5076675;28;20051;-81
2024/02/25 04:55:40;;;;;;;5.47;1.90;;;;;;;9.72;83.17;99827.94;5076467;28;20100;-84
2024/02/25 04:58:44;;;;;;;6.68;1.88;;;;;;;9.70;84.13;99824.53;5076543;28;20047;-80
2024/02/25 05:01:49;;;;;;;6.03;2.17;;;;;;;9.78;83.81;99831.84;5076442;28;20052;-81
2024/02/25 05:04:53;;;;;;;3.35;1.40;;;;;;;10.18;82.52;99834.38;5076449;28;20052;-83
2024/02/25 05:07:57;;;;;;;4.13;1.83;;;;;;;10.33;81.60;99838.28;5064025;28;20067;-79
2024/02/25 05:11:03;;;;;;;4.03;1.65;;;;;;;10.40;80.88;99831.34;5076324;28;20063;-83
2024/02/25 05:14:07;;;;;;;3.70;1.30;;;;;;;10.32;81.25;99844.66;5075877;28;20052;-84
2024/02/25 05:17:12;;;;;;;4.50;1.60;;;;;;;10.27;81.87;99837.03;5076222;28;20124;-80
2024/02/25 05:20:16;;;;;;;5.80;1.30;;;;;;;10.37;81.39;99831.63;5076166;28;20047;-84
2024/02/25 05:23:20;;;;;;;3.83;1.50;;;;;;;10.16;81.28;99831.00;5063748;28;20384;-83
2024/02/25 05:26:25;;;;;;;7.13;1.42;;;;;;;10.08;82.42;99826.31;5076007;28;20052;-84
2024/02/25 05:29:30;;;;;;;4.53;2.17;;;;;;;9.81;82.35;99828.91;5075991;28;20059;-83
2024/02/25 05:32:35;;;;;;;3.17;1.17;;;;;;;9.73;82.15;99826.94;5075881;28;20379;-86
2024/02/25 05:35:41;;;;;;;3.13;1.13;;;;;;;9.55;83.12;99825.13;5075711;28;20052;-81
2024/02/25 05:38:45;;;;;;;3.80;1.30;;;;;;;9.76;82.02;99821.28;5075691;28;20043;-83
2024/02/25 05:41:50;;;;;;;2.60;1.20;;;;;;;9.75;81.54;99816.91;5075726;28;20056;-83
2024/02/25 05:44:56;;;;;;;4.10;1.50;;;;;;;9.88;81.26;99821.13;5075400;28;20391;-79
2024/02/25 05:48:01;;;;;;;5.28;1.10;;;;;;;10.09;80.68;99819.13;5075013;28;20055;-82
2024/02/25 05:51:07;;;;;;;3.00;1.30;;;;;;;10.26;79.49;99816.56;5075449;28;20046;-81
2024/02/25 05:54:11;;;;;;;2.10;1.10;;;;;;;10.14;79.98;99822.25;5075622;28;20055;-82
2024/02/25 05:57:16;;;;;;;4.38;1.40;;;;;;;10.45;79.82;99829.94;5075372;28;20067;-84
2024/02/25 06:00:21;;;;;;;5.85;1.50;;;;;;;10.41;79.53;99822.31;5075351;28;20056;-85
2024/02/25 06:03:25;;;;;;;4.18;1.08;;;;;;;10.22;79.71;99825.06;5075235;28;20059;-81
2024/02/25 06:06:29;;;;;;;1.95;0.80;;;;;;;10.06;80.60;99838.19;5075162;28;20055;-84
2024/02/25 06:09:34;;;;;;;2.38;1.23;;;;;;;9.91;81.18;99824.38;5075064;28;20051;-85
2024/02/25 06:12:38;;;;;;;2.65;1.33;;;;;;;9.89;81.17;99821.00;5063002;28;20059;-81
2024/02/25 06:15:43;;;;;;;3.17;1.50;;;;;;;9.68;81.31;99821.16;5074969;28;20051;-85
2024/02/25 06:18:48;;;;;;;3.42;1.45;;;;;;;9.73;81.34;99823.41;5074961;28;20399;-84
2024/02/25 06:21:53;;;;;;;5.50;1.60;;;;;;;9.50;82.14;99830.91;5074825;28;20056;-80
2024/02/25 06:24:58;;;;;;;2.80;1.35;;;;;;;9.68;81.32;99825.66;5074803;28;20055;-83
2024/02/25 06:28:02;;;;;;;5.70;1.23;;;;;;;9.66;80.95;99833.84;5074753;28;20071;-84
2024/02/25 06:31:07;;;;;;;3.90;1.52;;;;;;;9.67;81.17;99846.28;5074649;28;20495;-85
2024/02/25 06:34:12;;;;;;;6.38;1.50;;;;;;;9.52;81.68;99847.69;5074576;28;20408;-84
2024/02/25 06:37:17;;;;;;;4.65;1.85;;;;;;;9.31;82.82;99849.63;5074554;28;20399;-84
2024/02/25 06:40:21;;;;;;;3.55;1.17;;;;;;;9.52;81.67;99845.00;5074504;28;20053;-83
2024/02/25 06:43:26;;;;;;;4.25;1.40;;;;;;;9.39;82.13;99847.09;5074172;28;20051;-81
2024/02/25 06:46:40;;;;;;;3.67;1.60;;;;;;;9.45;81.89;99851.06;5074592;28;20047;-81
2024/02/25 06:49:45;;;;;;;4.53;1.60;;;;;;;9.43;82.48;99861.06;5090663;28;20055;-84
2024/02/25 06:52:50;;;;;;;3.33;1.20;;;;;;;9.77;80.74;99865.88;5094196;28;20055;-82
2024/02/25 06:55:54;;;;;;;3.90;1.55;;;;;;;9.69;81.87;99871.09;5094190;28;20051;-84
2024/02/25 06:58:58;;;;;;;3.08;1.30;;;;;;;9.72;81.52;99870.81;5094396;28;20051;-84
2024/02/25 07:02:03;;;;;;;2.10;0.90;;;;;;;9.78;81.15;99867.56;5094366;28;20062;-84
2024/02/25 07:05:08;;;;;;;1.92;0.93;;;;;;;9.85;81.10;99867.00;5081726;28;20055;-83
2024/02/25 07:08:12;;;;;;;3.10;1.00;;;;;;;10.04;80.41;99869.66;5081703;28;20047;-81
2024/02/25 07:11:21;;;;;;;5.95;1.35;;;;;;;9.96;80.68;99874.88;5094146;28;20043;-84
2024/02/25 07:14:28;;;;;;;4.78;1.27;;;;;;;10.82;79.24;99867.50;5094115;28;20055;-85
2024/02/25 07:17:32;;;;;;;2.13;1.02;;;;;;;11.84;74.69;99871.69;5094109;28;20055;-80
2024/02/25 07:20:39;;;;;;;3.55;0.95;;;;;;;12.15;72.23;99867.56;5093992;28;20372;-83
2024/02/25 07:23:43;;;;;;;2.28;0.90;;;;;;;12.35;71.83;99865.50;5081474;28;20051;-80
2024/02/25 07:26:48;;;;;;;2.95;0.80;;;;;;;12.87;69.55;99866.31;5093920;28;20050;-85
2024/02/25 07:29:52;;;;;;;1.75;0.98;;;;;;;13.40;68.06;99869.63;5081514;28;20055;-80
2024/02/25 07:32:57;;;;;;;6.50;0.82;;;;;;;13.85;66.35;99865.66;5093861;28;20489;-80
2024/02/25 07:36:01;;;;;;;5.75;1.30;;;;;;;13.44;66.72;99865.56;5093904;28;20062;-85
2024/02/25 07:39:06;;;;;;;2.40;1.13;;;;;;;13.20;68.20;99865.50;5093784;28;20485;-84
2024/02/25 07:42:11;;;;;;;3.63;1.73;;;;;;;13.05;68.73;99867.09;5093809;28;20047;-81
2024/02/25 07:45:16;;;;;;;4.57;2.20;;;;;;;12.69;70.65;99869.09;5093696;28;20493;-80
2024/02/25 07:48:20;;;;;;;4.78;1.83;;;;;;;12.97;71.00;99857.13;5087773;28;20055;-84
2024/02/25 07:51:25;;;;;;;3.97;1.50;;;;;;;13.64;69.89;99863.41;5073741;28;20063;-82
2024/02/25 07:54:29;;;;;;;6.60;2.50;;;;;;;14.38;66.66;99860.59;5073356;28;20064;-81
2024/02/25 07:57:35;;;;;;;5.38;2.88;;;;;;;15.22;64.41;99868.09;5073463;28;20391;-85
2024/02/25 08:00:39;;;;;;;3.63;1.77;;;;;;;16.55;58.86;99858.53;5074482;28;20064;-84
2024/02/25 08:03:45;;;;;;;5.65;2.20;;;;;;;18.27;53.09;99860.44;5077516;28;20044;-84
2024/02/25 08:06:49;;;;;;;8.23;2.30;;;;;;;20.87;45.28;99855.34;5071809;28;20043;-82
2024/02/25 08:09:54;;;;;;;4.10;2.47;;;;;;;23.15;39.66;99862.31;5077382;28;20052;-82
2024/02/25 08:12:59;;;;;;;6.18;1.60;;;;;;;25.34;35.22;99857.66;5077336;28;20055;-84
2024/02/25 08:16:04;;;;;;;3.25;1.42;;;;;;;26.88;32.37;99871.91;5077263;28;20395;-82
2024/02/25 08:19:09;;;;;;;2.17;1.05;;;;;;;27.99;29.82;99878.06;5077331;28;20158;-83
2024/02/25 08:22:14;;;;;;;1.88;0.80;;;;;;;28.86;28.58;99868.41;5064880;28;20052;-84
2024/02/25 08:25:20;;;;;;;5.07;0.73;;;;;;;29.49;27.25;99872.97;5077153;28;20132;-87
2024/02/25 08:28:25;;;;;;;1.67;0.60;;;;;;;30.53;25.63;99874.66;5077057;28;20051;-85
2024/02/25 08:31:30;;;;;;;3.38;0.60;;;;;;;30.98;24.96;99871.06;5077013;28;20060;-85
2024/02/25 08:34:34;;;;;;;1.45;0.60;;;;;;;31.36;24.54;99882.34;5076929;28;20064;-85
2024/02/25 08:37:41;;;;;;;2.15;0.65;;;;;;;31.93;24.05;99881.00;5064720;28;20482;-83
2024/02/25 08:40:45;;;;;;;1.80;0.77;;;;;;;32.19;23.78;99874.25;5053113;28;20383;-85
2024/02/25 08:43:50;;;;;;;1.90;0.60;;;;;;;32.20;23.16;99875.88;5076749;28;20494;-87
2024/02/25 08:46:55;;;;;;;2.30;0.80;;;;;;;32.53;23.70;99866.78;5076676;28;20047;-86
2024/02/25 08:50:00;;;;;;;4.57;0.70;;;;;;;32.14;23.32;99877.88;5075829;28;20061;-83
2024/02/25 08:53:04;;;;;;;0.90;0.35;;;;;;;32.30;23.40;99875.81;5076546;28;20052;-81
2024/02/25 08:56:09;;;;;;;2.83;0.75;;;;;;;32.30;23.67;99874.97;5076498;28;20051;-86
2024/02/25 08:59:13;;;;;;;1.42;0.52;;;;;;;32.34;23.88;99885.25;5076885;28;20052;-85
2024/02/25 09:02:18;;;;;;;2.20;0.75;;;;;;;32.98;22.95;99882.25;5076885;28;20387;-86
2024/02/25 09:05:23;;;;;;;1.15;0.55;;;;;;;32.20;23.23;99881.44;5076709;28;20482;-83
2024/02/25 09:08:28;;;;;;;1.65;0.80;;;;;;;30.27;25.30;99876.53;5076074;28;20499;-86
2024/02/25 09:11:32;;;;;;;2.38;0.70;;;;;;;30.36;25.41;99869.41;5075687;28;20060;-84
2024/02/25 09:14:37;;;;;;;1.63;0.50;;;;;;;30.29;25.20;99882.66;5076085;28;20391;-86
2024/02/25 09:17:41;;;;;;;0.90;0.40;;;;;;;29.08;25.69;99881.28;5063892;28;20043;-85
2024/02/25 09:20:45;;;;;;;3.30;1.50;;;;;;;29.77;25.38;99876.41;5076047;28;20056;-85
2024/02/25 09:23:50;;;;;;;3.05;1.30;;;;;;;30.35;24.56;99875.19;5076004;28;20051;-82
2024/02/25 09:26:54;;;;;;;1.55;0.80;;;;;;;30.23;24.13;99875.44;5075998;28;20422;-82
2024/02/25 09:29:59;;;;;;;1.23;0.47;;;;;;;29.18;25.77;99867.53;5075947;28;20067;-85
2024/02/25 09:33:04;;;;;;;1.67;0.70;;;;;;;29.11;26.74;99861.41;5075847;28;20055;-83
2024/02/25 09:36:08;;;;;;;1.38;0.68;;;;;;;28.34;26.87;99868.22;5076031;28;20060;-81
2024/02/25 09:39:14;;;;;;;2.30;0.80;;;;;;;27.18;28.08;99854.97;5075829;28;20059;-81
2024/02/25 09:42:21;;;;;;;1.52;0.70;;;;;;;25.88;30.39;99846.16;5075461;28;20063;-85
2024/02/25 09:45:32;;;;;;;2.47;1.40;;;;;;;25.48;30.90;99846.19;5075539;28;20056;-85
2024/02/25 09:48:37;;;;;;;2.90;1.30;;;;;;;25.17;31.15;99854.84;5075004;28;20063;-82
2024/02/25 09:51:42;;;;;;;1.48;0.60;;;;;;;23.86;31.86;99857.84;5075407;28;20541;-86
2024/02/25 09:54:48;;;;;;;2.67;0.50;;;;;;;23.25;33.48;99854.41;5062917;28;20466;-82
2024/02/25 09:57:53;;;;;;;2.42;0.70;;;;;;;21.65;36.44;99851.50;5075316;28;20490;-81
2024/02/25 10:00:57;;;;;;;1.73;0.75;;;;;;;20.25;39.72;99850.34;5075186;28;20052;-81
2024/02/25 10:04:02;;;;;;;5.00;0.70;;;;;;;19.44;41.27;99848.69;5063008;28;20483;-80
2024/02/25 10:07:07;;;;;;;2.35;1.10;;;;;;;18.76;43.51;99846.84;5075117;28;20387;-79
2024/02/25 10:10:12;;;;;;;3.03;0.70;;;;;;;18.48;44.29;99846.03;5075190;28;20147;-80
2024/02/25 10:13:16;;;;;;;1.75;0.80;;;;;;;17.88;46.85;99854.63;5074825;28;20067;-80
2024/02/25 10:16:21;;;;;;;1.98;0.80;;;;;;;17.91;47.17;99843.41;5074937;28;20111;-80
2024/02/25 10:19:25;;;;;;;7.55;2.10;;;;;;;17.89;46.76;99849.03;5074693;28;20051;-82
2024/02/25 10:22:31;;;;;;;2.90;0.98;;;;;;;17.85;48.25;99853.16;5074614;28;20051;-82
2024/02/25 10:25:39;;;;;;;4.55;1.08;;;;;;;17.53;49.17;99837.34;5074800;28;20475;-82
2024/02/25 10:28:44;;;;;;;2.22;1.05;;;;;;;17.37;50.67;99838.41;5074934;28;20051;-82
2024/02/25 10:31:57;;;;;;;3.75;1.30;;;;;;;17.22;52.23;99840.31;5074783;28;20487;-79
2024/02/25 10:35:04;;;;;;;3.70;1.40;;;;;;;17.18;52.86;99839.03;5074629;28;20055;-82
2024/02/25 10:38:12;;;;;;;7.03;3.15;;;;;;;17.24;52.98;99838.25;5074542;28;20052;-80
2024/02/25 10:41:17;;;;;;;4.28;1.48;;;;;;;17.47;50.90;99844.38;5074276;28;20112;-79
2024/02/25 10:44:22;;;;;;;2.72;1.25;;;;;;;17.41;50.61;99837.00;5074432;28;20063;-82
2024/02/25 10:47:30;;;;;;;3.28;1.40;;;;;;;17.31;52.60;99839.16;5074348;28;20491;-82
2024/02/25 10:50:36;;;;;;;3.15;1.30;;;;;;;16.97;53.09;99822.66;5074129;28;20056;-81
2024/02/25 10:53:41;;;;;;;2.63;1.30;;;;;;;16.97;54.41;99822.66;5074227;28;20060;-81
2024/02/25 10:56:47;;;;;;;2.90;1.10;;;;;;;16.82;53.39;99825.38;5073896;28;20407;-81
2024/02/25 10:59:53;;;;;;;3.50;1.52;;;;;;;16.61;55.17;99816.31;5061837;28;20051;-81
2024/02/25 11:02:59;;;;;;;3.25;1.33;;;;;;;16.63;54.87;99809.69;5074190;28;20116;-81
2024/02/25 11:06:08;;;;;;;2.35;1.17;;;;;;;16.56;55.50;99816.03;5074081;28;20120;-81
2024/02/25 11:09:13;;;;;;;3.50;1.33;;;;;;;16.48;55.26;99814.22;5074599;28;20048;-85
2024/02/25 11:12:21;;;;;;;3.03;1.58;;;;;;;16.48;55.91;99800.69;5073920;28;20052;-82
2024/02/25 11:15:28;;;;;;;4.03;1.70;;;;;;;16.53;56.00;99803.72;5073582;28;20056;-82
2024/02/25 11:18:33;;;;;;;5.13;1.98;;;;;;;16.55;56.22;99800.78;5073899;28;20055;-82
2024/02/25 11:21:37;;;;;;;3.08;1.50;;;;;;;16.55;56.59;99793.50;5073854;28;20056;-86
2024/02/25 11:24:52;;;;;;;2.58;1.20;;;;;;;16.39;56.39;99784.69;5073621;28;20518;-85
2024/02/25 11:27:57;;;;;;;2.50;1.40;;;;;;;16.60;55.85;99791.09;5073708;28;20514;-86
2024/02/25 11:31:06;;;;;;;2.88;1.60;;;;;;;16.70;54.95;99777.25;5061326;28;20067;-81
2024/02/25 11:34:11;;;;;;;4.10;1.35;;;;;;;16.68;53.43;99780.16;5061238;28;20063;-81
2024/02/25 11:37:17;;;;;;;3.03;1.20;;;;;;;16.53;53.98;99778.47;5073511;28;20109;-85
2024/02/25 11:40:22;;;;;;;5.03;1.70;;;;;;;16.25;55.18;99773.66;5073689;28;20059;-87
2024/02/25 11:43:27;;;;;;;4.13;1.50;;;;;;;16.54;54.66;99761.19;5073604;28;20051;-84
2024/02/25 11:46:32;;;;;;;6.57;3.53;;;;;;;16.76;54.64;99763.78;5073380;28;20387;-82
2024/02/25 11:49:38;;;;;;;3.45;1.77;;;;;;;16.71;54.04;99749.94;5089241;28;20051;-82
2024/02/25 11:52:57;;;;;;;5.15;1.45;;;;;;;16.41;54.52;99753.69;5093480;28;20141;-82
2024/02/25 11:56:03;;;;;;;1.92;1.08;;;;;;;16.60;53.92;99755.88;5093488;28;20055;-82
2024/02/25 11:59:08;;;;;;;3.88;1.55;;;;;;;16.19;55.24;99751.91;5081121;28;20051;-86
2024/02/25 12:02:13;;;;;;;2.38;1.08;;;;;;;16.34;56.19;99751.91;5081064;28;20058;-84
2024/02/25 12:05:18;;;;;;;5.00;1.77;;;;;;;16.44;55.91;99750.63;5093554;28;20051;-83
2024/02/25 12:08:23;;;;;;;2.95;1.48;;;;;;;16.49;55.79;99756.28;5081031;28;20055;-80
2024/02/25 12:11:28;;;;;;;2.90;1.30;;;;;;;16.49;54.26;99742.75;5093555;28;20056;-82
2024/02/25 12:14:38;;;;;;;2.80;1.33;;;;;;;16.56;54.94;99741.03;5081122;28;20063;-82
2024/02/25 12:17:45;;;;;;;2.70;1.38;;;;;;;16.49;56.67;99734.59;5051410;28;20059;-80
2024/02/25 12:20:51;;;;;;;3.63;1.83;;;;;;;16.60;55.40;99739.59;5051172;28;20052;-82
2024/02/25 12:24:00;;;;;;;4.60;1.42;;;;;;;16.41;54.61;99733.88;5051210;28;20048;-84
2024/02/25 12:27:04;;;;;;;2.95;1.40;;;;;;;16.42;54.59;99713.91;5051029;28;20140;-85
2024/02/25 12:30:13;;;;;;;5.70;2.58;;;;;;;16.34;55.56;99716.69;5051141;28;20056;-83
2024/02/25 12:33:18;;;;;;;3.90;1.60;;;;;;;16.49;54.59;99712.13;5051131;28;20044;-85
2024/02/25 12:36:27;;;;;;;3.00;1.48;;;;;;;16.54;54.53;99715.13;5039717;28;20063;-84
2024/02/25 12:39:39;;;;;;;4.43;1.85;;;;;;;16.74;54.06;99713.50;5051063;28;20492;-84
2024/02/25 12:42:48;;;;;;;3.40;1.50;;;;;;;16.79;54.05;99713.78;5050794;28;20156;-83
2024/02/25 12:45:52;;;;;;;2.97;1.25;;;;;;;16.99;53.81;99714.84;5050949;28;20052;-82
2024/02/25 12:48:57;;;;;;;2.80;1.25;;;;;;;16.87;52.77;99714.50;5065496;28;20055;-82
2024/02/25 12:52:03;;;;;;;6.10;1.27;;;;;;;17.11;52.09;99704.38;5076492;28;20047;-81
2024/02/25 12:55:10;;;;;;;4.30;1.90;;;;;;;16.98;52.77;99704.22;5076371;28;20043;-85
2024/02/25 12:58:15;;;;;;;3.63;1.50;;;;;;;16.95;53.09;99694.59;5076739;28;20075;-82
2024/02/25 13:01:19;;;;;;;7.20;1.30;;;;;;;17.16;51.86;99693.78;5064105;28;20059;-81
2024/02/25 13:04:27;;;;;;;3.80;1.30;;;;;;;17.12;51.33;99690.59;5076442;28;20048;-86
2024/02/25 13:07:34;;;;;;;5.60;0.95;;;;;;;17.01;51.46;99693.00;5065103;28;20059;-83
2024/02/25 13:10:41;;;;;;;2.75;1.00;;;;;;;16.88;52.29;99697.22;5076319;28;20501;-80
2024/02/25 13:13:47;;;;;;;3.58;1.20;;;;;;;16.83;52.55;99682.56;5076022;28;20494;-80
2024/02/25 13:16:55;;;;;;;2.60;1.23;;;;;;;16.75;52.12;99680.81;5076134;28;20055;-82
2024/02/25 13:19:59;;;;;;;3.42;1.50;;;;;;;16.65;52.51;99682.13;5076126;28;20047;-81
2024/02/25 13:23:04;;;;;;;3.53;1.10;;;;;;;16.55;52.60;99682.44;5052407;28;20072;-80
2024/02/25 13:26:10;;;;;;;2.88;1.23;;;;;;;16.28;52.76;99677.66;5075787;28;20051;-81
2024/02/25 13:29:14;;;;;;;2.97;1.13;;;;;;;15.99;53.21;99670.38;5075685;28;20048;-81
2024/02/25 13:32:19;;;;;;;8.30;4.90;;;;;;;16.22;52.86;99663.00;5075799;28;20055;-86
2024/02/25 13:35:24;;;;;;;3.47;1.67;;;;;;;16.33;52.85;99669.81;5075784;28;20075;-82
2024/02/25 13:38:28;;;;;;;2.40;1.20;;;;;;;16.49;52.10;99668.78;5075740;28;20051;-81
2024/02/25 13:41:33;;;;;;;3.05;1.20;;;;;;;16.60;50.63;99668.31;5075722;28;20047;-85
2024/02/25 13:44:37;;;;;;;3.53;1.20;;;;;;;16.65;50.04;99665.88;5075654;28;20051;-85
2024/02/25 13:47:42;;;;;;;3.25;0.93;;;;;;;16.89;49.18;99662.81;5075661;28;20474;-86
2024/02/25 13:50:47;;;;;;;2.58;0.93;;;;;;;16.91;49.74;99660.78;5095716;28;20500;-84
2024/02/25 13:53:52;;;;;;;2.70;1.52;;;;;;;17.03;49.69;99658.38;5095675;28;20051;-85
2024/02/25 13:56:58;;;;;;;2.95;1.33;;;;;;;16.76;52.12;99673.53;5082818;28;20059;-85
2024/02/25 14:00:03;;;;;;;2.83;1.05;;;;;;;16.82;52.47;99667.31;5095509;28;20035;-85
2024/02/25 14:03:17;;;;;;;4.00;1.40;;;;;;;16.90;53.51;99673.47;5095536;28;20047;-84
2024/02/25 14:06:23;;;;;;;3.88;1.88;;;;;;;16.86;52.48;99669.44;5095499;28;20478;-84
2024/02/25 14:09:36;;;;;;;3.30;1.45;;;;;;;16.97;51.80;99668.13;5095201;28;20055;-86
2024/02/25 14:12:46;;;;;;;4.47;1.20;;;;;;;16.92;51.44;99662.44;5082965;28;20059;-85
2024/02/25 14:15:55;;;;;;;2.17;1.20;;;;;;;16.93;51.62;99658.69;5083029;28;20047;-86
2024/02/25 14:19:00;;;;;;;26.50;12.70;;;;;;;17.05;51.10;99665.28;5095086;28;20489;-83
2024/02/25 14:22:06;;;;;;;9.35;5.40;;;;;;;16.92;51.32;99662.44;5095071;28;20047;-84
2024/02/25 14:25:11;;;;;;;35.75;19.38;;;;;;;16.89;50.95;99669.06;5094914;28;20047;-86
2024/02/25 14:28:16;;;;;;;16.17;8.73;;;;;;;17.07;50.27;99663.22;5095279;28;20482;-81
2024/02/25 14:31:21;;;;;;;48.65;23.77;;;;;;;16.94;50.84;99660.34;5094880;28;20059;-85
2024/02/25 14:34:26;;;;;;;19.63;10.38;;;;;;;17.08;50.61;99651.34;5094532;28;20494;-84